Time;durP1;ratioP1;P1;durP2;ratioP2;P2;SDS_P1;SDS_P2;PMS_P1;PMS_P2;Temp;Humidity;BMP_temperature;BMP_pressure;BME280_temperature;BME280_humidity;BME280_pressure;Samples;Min_cycle;Max_cycle;Signal;HPM_P1;HPM_P2
2022/02/04 00:05:52;;;;;;;4.57;4.17;;;10.50;99.90;;;;;;4973965;28;20559;-59
2022/02/04 00:08:45;;;;;;;5.57;4.30;;;10.50;99.90;;;;;;4981665;28;20456;-59
2022/02/04 00:22:53;;;;;;;5.05;4.50;;;10.00;99.90;;;;;;4984508;28;20454;-60
2022/02/04 00:25:34;;;;;;;5.28;4.53;;;9.90;99.90;;;;;;4986605;28;20211;-58
2022/02/04 00:28:12;;;;;;;3.90;3.60;;;9.80;99.90;;;;;;4977590;28;20205;-60
2022/02/04 00:30:48;;;;;;;4.32;3.78;;;9.80;99.90;;;;;;4973852;28;20228;-58
2022/02/04 00:33:19;;;;;;;3.85;3.55;;;9.70;99.90;;;;;;4985912;28;20204;-58
2022/02/04 00:35:56;;;;;;;5.53;4.50;;;9.70;99.90;;;;;;4985585;28;20215;-59
2022/02/04 00:38:30;;;;;;;4.75;4.00;;;9.80;99.90;;;;;;4979601;28;20444;-60
2022/02/04 00:41:05;;;;;;;3.83;3.53;;;9.70;99.90;;;;;;4986216;28;20204;-60
2022/02/04 00:43:39;;;;;;;4.17;3.60;;;9.70;99.90;;;;;;4988252;28;20263;-59
2022/02/04 00:46:15;;;;;;;4.07;3.63;;;9.60;99.90;;;;;;4988364;28;20481;-60
2022/02/04 00:49:10;;;;;;;4.65;4.25;;;9.50;99.90;;;;;;4977851;28;20452;-60
2022/02/04 00:51:51;;;;;;;4.13;3.60;;;9.50;99.90;;;;;;4982739;28;20250;-59
2022/02/04 00:54:27;;;;;;;4.63;3.92;;;9.50;99.90;;;;;;4985378;28;20452;-59
2022/02/04 00:57:12;;;;;;;4.83;4.53;;;9.40;99.90;;;;;;4985719;28;20207;-59
2022/02/04 01:27:47;;;;;;;4.35;4.00;;;8.50;99.90;;;;;;4984470;28;20209;-59
2022/02/04 01:30:20;;;;;;;3.40;3.10;;;8.30;99.90;;;;;;4981584;28;20226;-60
2022/02/04 01:32:53;;;;;;;3.90;3.60;;;8.30;99.90;;;;;;4992834;28;20223;-61
2022/02/04 01:35:25;;;;;;;4.20;3.90;;;8.20;99.90;;;;;;5001480;28;20234;-60
2022/02/04 01:37:55;;;;;;;4.70;4.30;;;8.10;99.90;;;;;;4983481;28;20200;-59
2022/02/04 01:40:26;;;;;;;4.80;4.40;;;8.00;99.90;;;;;;4984139;28;20219;-56
2022/02/04 01:42:58;;;;;;;5.05;4.63;;;8.00;99.90;;;;;;4978855;28;20204;-59
2022/02/04 01:45:29;;;;;;;4.90;4.53;;;8.00;99.90;;;;;;4984426;28;20204;-59
2022/02/04 01:48:01;;;;;;;4.88;4.47;;;7.80;99.90;;;;;;4981549;28;20201;-60
2022/02/04 01:50:33;;;;;;;5.43;4.93;;;7.80;99.90;;;;;;4984329;28;20193;-62
2022/02/04 01:53:05;;;;;;;5.30;4.90;;;7.70;99.90;;;;;;4983716;28;20309;-60
2022/02/04 01:55:36;;;;;;;5.32;4.85;;;7.70;99.90;;;;;;4987147;28;20204;-63
2022/02/04 01:58:06;;;;;;;5.28;4.88;;;7.60;99.90;;;;;;4992227;28;20208;-64
2022/02/04 02:00:38;;;;;;;6.65;5.70;;;7.60;99.90;;;;;;4990617;28;20205;-65
2022/02/04 02:03:11;;;;;;;6.63;6.03;;;7.60;99.90;;;;;;4985069;28;20228;-64
2022/02/04 02:05:42;;;;;;;8.05;7.05;;;7.50;99.90;;;;;;4975247;28;20236;-68
2022/02/04 02:08:15;;;;;;;12.82;8.25;;;7.40;99.90;;;;;;4985874;28;20347;-64
2022/02/04 02:10:48;;;;;;;13.98;10.32;;;7.40;99.90;;;;;;4991421;28;20216;-63
2022/02/04 02:13:27;;;;;;;12.38;10.55;;;7.40;99.90;;;;;;4983549;28;20224;-64
2022/02/04 02:16:10;;;;;;;13.07;11.65;;;7.30;99.90;;;;;;4987691;28;20280;-64
2022/02/04 02:35:51;;;;;;;15.45;13.85;;;7.10;99.90;;;;;;4967368;28;20209;-63
2022/02/04 02:44:29;;;;;;;15.52;13.50;;;6.80;99.90;;;;;;4982886;28;20210;-61
2022/02/04 02:50:11;;;;;;;16.42;14.82;;;6.70;99.90;;;;;;4976330;28;20209;-61
2022/02/04 02:53:06;;;;;;;18.02;14.68;;;6.60;99.90;;;;;;4975336;28;20584;-60
2022/02/04 02:55:46;;;;;;;18.30;15.77;;;6.70;99.90;;;;;;4997345;28;20204;-62
2022/02/04 02:58:19;;;;;;;20.08;17.27;;;6.70;99.90;;;;;;4980105;28;20212;-62
2022/02/04 03:00:57;;;;;;;18.70;15.43;;;6.70;99.90;;;;;;4983400;28;20206;-59
2022/02/04 03:03:31;;;;;;;18.77;16.13;;;6.60;99.90;;;;;;4983751;28;20220;-59
2022/02/04 03:06:02;;;;;;;18.73;16.10;;;6.60;99.90;;;;;;4984454;28;20240;-60
2022/02/04 03:08:33;;;;;;;17.02;15.23;;;6.50;99.90;;;;;;4982767;28;20201;-61
2022/02/04 03:11:05;;;;;;;19.45;16.60;;;6.50;99.90;;;;;;4983629;28;20208;-60
2022/02/04 03:13:36;;;;;;;1999.90;411.30;;;6.50;99.90;;;;;;4982159;28;20567;-58
2022/02/04 03:16:10;;;;;;;18.67;16.75;;;6.40;99.90;;;;;;4983645;28;20213;-59
2022/02/04 03:18:44;;;;;;;20.00;17.90;;;6.30;99.90;;;;;;4984629;28;20196;-58
2022/02/04 03:21:17;;;;;;;19.23;17.25;;;6.20;99.90;;;;;;4983138;28;20219;-58
2022/02/04 03:23:52;;;;;;;21.98;18.48;;;6.20;99.90;;;;;;4983037;28;20219;-60
2022/02/04 03:26:31;;;;;;;18.98;16.73;;;6.30;99.90;;;;;;4983584;28;20275;-61
2022/02/04 03:29:02;;;;;;;18.50;16.60;;;6.20;99.90;;;;;;4977503;28;20205;-61
2022/02/04 03:31:38;;;;;;;19.95;17.08;;;6.20;99.90;;;;;;5002895;28;20226;-61
2022/02/04 03:34:09;;;;;;;27.38;22.65;;;6.10;99.90;;;;;;4994127;28;20552;-61
2022/02/04 03:36:40;;;;;;;30.13;24.38;;;6.10;99.90;;;;;;4976773;28;20700;-61
2022/02/04 03:39:11;;;;;;;29.50;25.13;;;6.10;99.90;;;;;;4985653;28;20287;-60
2022/02/04 03:41:43;;;;;;;28.88;25.17;;;6.00;99.90;;;;;;4982794;28;20201;-60
2022/02/04 03:44:14;;;;;;;27.38;24.48;;;6.00;99.90;;;;;;4982774;28;20213;-61
2022/02/04 03:46:45;;;;;;;34.88;29.45;;;5.90;99.90;;;;;;4974002;28;20276;-61
2022/02/04 03:49:16;;;;;;;32.05;28.40;;;5.80;99.90;;;;;;4974679;28;20197;-60
2022/02/04 03:51:47;;;;;;;29.42;23.73;;;5.80;99.90;;;;;;4982471;28;20189;-61
2022/02/04 03:54:18;;;;;;;30.80;24.85;;;5.70;99.90;;;;;;4983209;28;20255;-62
2022/02/04 03:56:51;;;;;;;112.78;38.00;;;5.70;99.90;;;;;;4984168;28;20201;-59
2022/02/04 03:59:25;;;;;;;229.07;54.63;;;5.70;99.90;;;;;;4986695;28;20406;-60
2022/02/04 04:01:56;;;;;;;27.05;22.20;;;5.70;99.90;;;;;;4985713;28;20688;-60
2022/02/04 04:04:31;;;;;;;28.70;22.13;;;5.50;99.90;;;;;;4987054;28;20532;-59
2022/02/04 04:07:02;;;;;;;24.73;21.90;;;5.60;99.90;;;;;;4986262;28;20193;-61
2022/02/04 04:09:35;;;;;;;29.45;21.95;;;5.60;99.90;;;;;;4994034;28;20214;-61
2022/02/04 04:12:09;;;;;;;29.05;22.60;;;5.60;99.90;;;;;;4989065;28;20504;-60
2022/02/04 04:14:40;;;;;;;25.90;21.80;;;5.50;99.90;;;;;;4986069;28;20264;-60
2022/02/04 04:17:11;;;;;;;22.10;19.75;;;5.50;99.90;;;;;;4988406;28;20540;-60
2022/02/04 04:19:42;;;;;;;22.02;19.70;;;5.40;99.90;;;;;;4986243;28;20640;-60
2022/02/04 04:22:12;;;;;;;22.67;20.27;;;5.40;99.90;;;;;;4985933;28;20219;-61
2022/02/04 04:24:43;;;;;;;23.27;20.80;;;5.30;99.90;;;;;;4986171;28;20303;-61
2022/02/04 04:27:16;;;;;;;21.73;19.40;;;5.40;99.90;;;;;;4995236;28;20212;-60
2022/02/04 04:29:47;;;;;;;26.20;22.05;;;5.30;99.90;;;;;;4991551;28;20222;-60
2022/02/04 04:32:17;;;;;;;54.97;28.25;;;5.30;99.90;;;;;;4986483;28;20205;-60
2022/02/04 04:34:48;;;;;;;1999.90;488.25;;;5.40;99.90;;;;;;4986514;28;20651;-60
2022/02/04 04:37:20;;;;;;;291.05;64.82;;;5.30;99.90;;;;;;4987100;28;20218;-60
2022/02/04 04:40:01;;;;;;;32.60;25.45;;;5.20;99.90;;;;;;4983567;28;20533;-61
2022/02/04 04:42:48;;;;;;;26.08;23.33;;;5.20;99.90;;;;;;4989574;28;20204;-60
2022/02/04 05:30:22;;;;;;;22.48;18.35;;;4.60;99.90;;;;;;4947852;29;20213;-60
2022/02/04 05:32:56;;;;;;;19.67;17.23;;;4.50;99.90;;;;;;4947827;29;20209;-61
2022/02/04 05:35:26;;;;;;;18.17;14.73;;;4.50;99.90;;;;;;4946780;29;20218;-61
2022/02/04 05:37:57;;;;;;;20.40;17.02;;;4.40;99.90;;;;;;4944559;29;20233;-61
2022/02/04 05:40:31;;;;;;;26.73;19.95;;;4.40;99.90;;;;;;4945352;29;20241;-60
2022/02/04 05:43:15;;;;;;;22.95;20.52;;;4.30;99.90;;;;;;4941779;29;20210;-60
2022/02/04 05:45:54;;;;;;;29.27;24.00;;;4.30;99.90;;;;;;4941322;29;20203;-59
2022/02/04 05:48:29;;;;;;;30.98;25.00;;;4.30;99.90;;;;;;4946922;29;20205;-61
2022/02/04 05:51:27;;;;;;;31.98;25.58;;;4.20;99.90;;;;;;4944899;29;20272;-62
2022/02/04 05:54:04;;;;;;;33.38;28.00;;;4.20;99.90;;;;;;4945343;29;20217;-61
2022/02/04 05:56:43;;;;;;;35.78;29.45;;;4.20;99.90;;;;;;4946301;29;20205;-61
2022/02/04 05:59:23;;;;;;;34.00;30.33;;;4.20;99.90;;;;;;4944111;29;20256;-61
2022/02/04 06:02:08;;;;;;;30.42;27.35;;;4.20;99.90;;;;;;4969627;28;20200;-61
2022/02/04 06:04:52;;;;;;;34.78;28.52;;;4.20;99.90;;;;;;4979942;28;20212;-61
2022/02/04 06:07:31;;;;;;;31.83;27.80;;;4.20;99.90;;;;;;4978013;28;20205;-61
2022/02/04 06:24:02;;;;;;;28.70;23.30;;;4.10;99.90;;;;;;4985965;28;20287;-60
2022/02/04 06:26:33;;;;;;;29.92;23.02;;;4.10;99.90;;;;;;4980934;28;20205;-60
2022/02/04 06:29:04;;;;;;;23.95;21.33;;;4.00;99.90;;;;;;4985275;28;20222;-60
2022/02/04 06:31:36;;;;;;;29.80;22.50;;;3.90;99.90;;;;;;4988198;28;20230;-60
2022/02/04 06:34:07;;;;;;;26.85;21.48;;;3.90;99.90;;;;;;4992763;28;20231;-60
2022/02/04 06:36:39;;;;;;;24.75;20.40;;;3.90;99.90;;;;;;4991980;28;20302;-60
2022/02/04 06:39:10;;;;;;;25.95;20.52;;;3.90;99.90;;;;;;4992105;28;20204;-60
2022/02/04 06:41:42;;;;;;;24.88;21.25;;;3.80;99.90;;;;;;4993290;28;20204;-60
2022/02/04 06:44:13;;;;;;;26.75;21.98;;;3.80;99.90;;;;;;4987571;28;20246;-60
2022/02/04 06:46:43;;;;;;;23.77;21.27;;;3.90;99.90;;;;;;4984410;28;20208;-60
2022/02/04 06:49:14;;;;;;;28.00;23.00;;;3.90;99.90;;;;;;4988556;28;20188;-60
2022/02/04 06:51:47;;;;;;;25.23;21.00;;;3.90;99.90;;;;;;4983455;28;20197;-60
2022/02/04 06:54:17;;;;;;;28.52;21.38;;;3.80;99.90;;;;;;4983084;28;20240;-59
2022/02/04 06:56:48;;;;;;;22.42;18.83;;;3.80;99.90;;;;;;4985167;28;20201;-59
2022/02/04 06:59:21;;;;;;;22.92;20.30;;;3.60;99.90;;;;;;4985552;28;20220;-60
2022/02/04 07:01:52;;;;;;;26.50;21.00;;;3.60;99.90;;;;;;4990513;28;20204;-60
2022/02/04 07:04:28;;;;;;;25.75;20.52;;;3.60;99.90;;;;;;4984158;28;20195;-60
2022/02/04 07:07:01;;;;;;;25.27;22.42;;;3.60;99.90;;;;;;4991306;28;20188;-60
2022/02/04 07:09:44;;;;;;;25.67;22.83;;;3.60;99.90;;;;;;4989334;28;20208;-60
2022/02/04 07:12:27;;;;;;;27.88;23.60;;;3.70;99.90;;;;;;4980425;28;20216;-60
2022/02/04 07:15:39;;;;;;;24.35;21.77;;;3.70;99.90;;;;;;4992301;28;20227;-59
2022/02/04 07:21:06;;;;;;;27.02;22.38;;;3.90;99.90;;;;;;4967617;28;20216;-60
2022/02/04 07:23:40;;;;;;;32.80;24.05;;;3.90;99.90;;;;;;4965033;28;20225;-60
2022/02/04 07:26:10;;;;;;;24.92;19.13;;;4.10;99.90;;;;;;4967641;28;20280;-60
2022/02/04 07:28:41;;;;;;;19.73;16.88;;;4.20;99.90;;;;;;4972486;28;20192;-60
2022/02/04 07:31:13;;;;;;;24.88;18.40;;;4.30;99.90;;;;;;4967717;28;20231;-59
2022/02/04 07:33:48;;;;;;;23.25;18.45;;;4.40;99.90;;;;;;4967869;28;20328;-60
2022/02/04 07:41:57;;;;;;;25.10;18.80;;;4.60;99.90;;;;;;4966256;28;20201;-60
2022/02/04 07:44:28;;;;;;;28.65;18.10;;;4.80;99.90;;;;;;4965848;28;20247;-60
2022/02/04 07:46:59;;;;;;;19.92;15.40;;;4.90;99.90;;;;;;4967161;28;20641;-60
2022/02/04 07:49:30;;;;;;;22.23;16.05;;;4.90;99.90;;;;;;4972449;28;20192;-60
2022/02/04 07:52:01;;;;;;;18.05;14.50;;;4.90;99.90;;;;;;4965047;28;20662;-61
2022/02/04 07:54:33;;;;;;;16.55;12.55;;;5.00;99.90;;;;;;4970599;28;20339;-60
2022/02/04 07:57:04;;;;;;;17.67;13.80;;;4.90;99.90;;;;;;4965574;28;20220;-60
2022/02/04 07:59:36;;;;;;;14.52;11.45;;;4.90;99.90;;;;;;4995342;28;20299;-60
2022/02/04 08:02:07;;;;;;;13.88;10.90;;;4.80;99.90;;;;;;5003035;28;20189;-59
2022/02/04 08:04:40;;;;;;;15.93;11.75;;;4.70;99.90;;;;;;4988077;28;20213;-59
2022/02/04 08:07:14;;;;;;;18.35;13.07;;;4.70;99.90;;;;;;5003713;28;20216;-59
2022/02/04 08:10:00;;;;;;;17.85;13.55;;;4.60;99.90;;;;;;4987518;28;20200;-59
2022/02/04 08:12:48;;;;;;;22.02;13.63;;;4.60;99.90;;;;;;4989195;28;20551;-59
2022/02/04 08:15:39;;;;;;;20.30;12.70;;;4.60;99.90;;;;;;4989626;28;20299;-59
2022/02/04 08:18:30;;;;;;;22.33;13.30;;;4.50;99.90;;;;;;4999555;28;20204;-62
2022/02/04 08:21:24;;;;;;;18.85;13.38;;;4.50;99.90;;;;;;4997181;28;20200;-59
2022/02/04 08:24:11;;;;;;;19.70;11.60;;;4.40;99.90;;;;;;4986107;28;20303;-59
2022/02/04 08:27:07;;;;;;;23.27;13.20;;;4.30;99.90;;;;;;4986018;28;20227;-59
2022/02/04 08:29:54;;;;;;;14.75;10.32;;;4.30;99.90;;;;;;4988014;28;20203;-60
2022/02/04 08:32:43;;;;;;;16.92;12.43;;;4.30;99.90;;;;;;4990752;28;20192;-60
2022/02/04 08:35:46;;;;;;;16.40;11.48;;;4.20;99.90;;;;;;4990854;28;20292;-59
2022/02/04 08:38:34;;;;;;;19.63;11.88;;;4.20;99.90;;;;;;4993952;28;20192;-60
2022/02/04 08:46:59;;;;;;;14.15;9.75;;;4.10;99.90;;;;;;4982154;28;20633;-59
2022/02/04 08:49:55;;;;;;;11.98;9.73;;;4.20;99.90;;;;;;4996781;28;20224;-57
2022/02/04 08:52:39;;;;;;;13.15;9.85;;;4.30;99.90;;;;;;4987674;28;20205;-60
2022/02/04 08:55:13;;;;;;;13.68;10.32;;;4.40;99.90;;;;;;4984348;28;20221;-60
2022/02/04 08:57:49;;;;;;;16.50;11.07;;;4.50;99.90;;;;;;4990935;28;20200;-59
2022/02/04 09:00:28;;;;;;;19.92;11.20;;;4.40;99.90;;;;;;4992806;28;20711;-60
2022/02/04 09:03:03;;;;;;;14.75;11.82;;;4.40;99.90;;;;;;4985555;28;20518;-60
2022/02/04 09:05:38;;;;;;;17.83;11.23;;;4.40;99.90;;;;;;4987875;28;20227;-59
2022/02/04 09:08:24;;;;;;;16.52;11.73;;;4.40;99.90;;;;;;4991290;28;20210;-60
2022/02/04 09:11:01;;;;;;;34.60;13.70;;;4.30;99.90;;;;;;4991089;28;20214;-56
2022/02/04 09:19:13;;;;;;;25.88;14.30;;;4.30;99.90;;;;;;4985539;28;20559;-59
2022/02/04 09:24:29;;;;;;;30.08;14.27;;;4.20;99.90;;;;;;4995112;28;20537;-60
2022/02/04 09:26:59;;;;;;;19.02;12.07;;;4.20;99.90;;;;;;4989121;28;20284;-59
2022/02/04 09:29:30;;;;;;;14.70;10.63;;;4.10;99.90;;;;;;4986183;28;20216;-60
2022/02/04 09:32:03;;;;;;;16.92;10.10;;;4.10;99.90;;;;;;4989685;28;20201;-60
2022/02/04 09:34:34;;;;;;;43.80;13.98;;;4.20;99.90;;;;;;4992302;28;20205;-58
2022/02/04 09:37:26;;;;;;;52.33;12.40;;;4.20;99.90;;;;;;4994835;28;20212;-60
2022/02/04 09:39:57;;;;;;;23.13;9.95;;;4.10;99.90;;;;;;4987302;28;20219;-60
2022/02/04 09:42:28;;;;;;;47.42;12.68;;;4.10;99.90;;;;;;4981079;28;20197;-60
2022/02/04 09:44:59;;;;;;;44.10;12.05;;;4.10;99.90;;;;;;4988113;28;20208;-60
2022/02/04 09:47:35;;;;;;;27.55;11.20;;;4.10;99.90;;;;;;4989129;28;20193;-60
2022/02/04 09:50:15;;;;;;;13.10;9.02;;;4.10;99.90;;;;;;4975122;28;20672;-60
2022/02/04 10:07:25;;;;;;;69.57;13.77;;;3.90;99.90;;;;;;4955289;28;20215;-60
2022/02/04 10:13:33;;;;;;;40.90;12.48;;;4.00;99.90;;;;;;4988296;28;20216;-60
2022/02/04 10:16:37;;;;;;;38.63;10.45;;;4.00;99.90;;;;;;4987759;28;20224;-60
2022/02/04 10:19:23;;;;;;;15.70;8.35;;;4.00;99.90;;;;;;4985839;28;20208;-60
2022/02/04 10:22:00;;;;;;;11.95;7.47;;;3.80;99.90;;;;;;4994724;28;20260;-60
2022/02/04 10:24:33;;;;;;;7.00;5.95;;;3.80;99.90;;;;;;4988729;28;20264;-60
2022/02/04 10:27:16;;;;;;;7.82;6.60;;;3.70;99.90;;;;;;4983656;28;20220;-60
2022/02/04 10:29:54;;;;;;;7.07;5.88;;;3.60;99.90;;;;;;4983884;28;20214;-60
2022/02/04 10:32:40;;;;;;;7.68;5.93;;;3.60;99.90;;;;;;4992747;28;20314;-60
2022/02/04 10:35:16;;;;;;;6.80;5.55;;;3.50;99.90;;;;;;4995447;28;20201;-60
2022/02/04 10:38:08;;;;;;;7.00;5.85;;;3.40;99.90;;;;;;4981683;28;20203;-60
2022/02/04 10:40:49;;;;;;;7.85;6.00;;;3.40;99.90;;;;;;4988772;28;20322;-59
2022/02/04 10:43:39;;;;;;;7.15;5.85;;;3.40;99.90;;;;;;4989134;28;20184;-60
2022/02/04 10:46:23;;;;;;;6.30;5.70;;;3.40;99.90;;;;;;4987699;28;20200;-60
2022/02/04 10:49:20;;;;;;;7.07;6.32;;;3.30;99.90;;;;;;4992353;28;20204;-61
2022/02/04 10:52:17;;;;;;;7.70;6.68;;;3.30;99.90;;;;;;4999346;28;20666;-60
2022/02/04 10:58:07;;;;;;;11.02;7.30;;;3.20;99.90;;;;;;4984158;28;20205;-60
2022/02/04 11:01:07;;;;;;;9.15;6.75;;;3.20;99.90;;;;;;4990573;28;20207;-60
2022/02/04 11:03:45;;;;;;;10.10;6.13;;;3.20;99.90;;;;;;4988139;28;20199;-60
2022/02/04 11:06:27;;;;;;;9.90;7.15;;;3.20;99.90;;;;;;4995381;28;20786;-60
2022/02/04 11:09:08;;;;;;;8.90;6.30;;;3.20;99.90;;;;;;4991360;28;20211;-60
2022/02/04 11:31:44;;;;;;;11.07;8.02;;;3.20;99.90;;;;;;4962029;28;20210;-60
2022/02/04 11:34:27;;;;;;;10.15;7.55;;;3.20;99.90;;;;;;4961697;28;20385;-60
2022/02/04 11:52:02;;;;;;;10.73;8.98;;;3.20;99.90;;;;;;4955300;28;20209;-60
2022/02/04 11:54:45;;;;;;;11.05;9.77;;;3.20;99.90;;;;;;4960499;28;20292;-59
2022/02/04 11:57:20;;;;;;;12.57;9.00;;;3.20;99.90;;;;;;4959174;28;20256;-60
2022/02/04 11:59:57;;;;;;;12.70;8.65;;;3.20;99.90;;;;;;4987305;28;20200;-60
2022/02/04 12:02:40;;;;;;;10.82;8.10;;;3.10;99.90;;;;;;4983337;28;20274;-60
2022/02/04 12:05:31;;;;;;;9.02;7.97;;;3.20;99.90;;;;;;4992245;28;20232;-60
2022/02/04 12:08:20;;;;;;;9.10;8.00;;;3.10;99.90;;;;;;4972917;28;20233;-60
2022/02/04 12:11:02;;;;;;;9.07;7.25;;;3.10;99.90;;;;;;4983693;28;20217;-60
2022/02/04 12:13:53;;;;;;;8.77;7.55;;;3.10;99.90;;;;;;4989605;28;20674;-60
2022/02/04 12:16:24;;;;;;;9.60;7.00;;;3.10;99.90;;;;;;4981696;28;20232;-59
2022/02/04 12:19:10;;;;;;;8.10;7.30;;;3.20;99.90;;;;;;4986957;28;20208;-59
2022/02/04 12:21:51;;;;;;;7.65;5.95;;;3.10;99.90;;;;;;4994863;28;20208;-58
2022/02/04 12:24:45;;;;;;;6.72;6.13;;;3.10;99.90;;;;;;4987178;28;20207;-57
2022/02/04 12:27:39;;;;;;;7.80;6.22;;;3.10;99.90;;;;;;4988802;28;20239;-59
2022/02/04 12:30:46;;;;;;;6.03;5.22;;;3.20;99.90;;;;;;4987572;28;20189;-58
2022/02/04 12:33:17;;;;;;;7.93;6.30;;;3.20;99.90;;;;;;4995338;28;20198;-56
2022/02/04 12:35:49;;;;;;;6.35;5.75;;;3.30;99.90;;;;;;4987248;28;20207;-60
2022/02/04 12:38:20;;;;;;;6.15;5.47;;;3.20;99.90;;;;;;4987256;28;20209;-59
2022/02/04 12:40:59;;;;;;;5.90;5.40;;;3.30;99.90;;;;;;4988301;28;20219;-60
2022/02/04 12:43:37;;;;;;;7.13;6.43;;;3.30;99.90;;;;;;4990443;28;20228;-60
2022/02/04 12:46:08;;;;;;;9.77;8.23;;;3.30;99.90;;;;;;4997734;28;20283;-59
2022/02/04 12:48:39;;;;;;;7.85;6.72;;;3.40;99.90;;;;;;4999511;28;20200;-60
2022/02/04 12:51:11;;;;;;;8.35;6.90;;;3.40;99.90;;;;;;4984029;28;20271;-59
2022/02/04 12:53:47;;;;;;;8.65;7.40;;;3.50;99.90;;;;;;4984073;28;20200;-59
2022/02/04 12:56:35;;;;;;;8.70;6.70;;;3.50;99.90;;;;;;4986782;28;20216;-59
2022/02/04 12:59:38;;;;;;;6.93;6.00;;;3.50;99.90;;;;;;4991083;28;20200;-60
2022/02/04 13:02:29;;;;;;;7.28;5.68;;;3.50;99.90;;;;;;4987938;28;20222;-60
2022/02/04 13:07:57;;;;;;;6.82;5.22;;;3.50;99.90;;;;;;4985395;28;20205;-60
2022/02/04 13:10:58;;;;;;;7.97;6.10;;;3.50;99.90;;;;;;4996465;28;20239;-59
2022/02/04 13:13:32;;;;;;;7.38;6.30;;;3.50;99.90;;;;;;4988904;28;20212;-59
2022/02/04 13:16:04;;;;;;;8.85;6.28;;;3.50;99.90;;;;;;4989716;28;20270;-60
2022/02/04 13:18:36;;;;;;;9.02;7.18;;;3.50;99.90;;;;;;4985355;28;20283;-60
2022/02/04 13:21:07;;;;;;;8.57;6.25;;;3.50;99.90;;;;;;4989901;28;20231;-60
2022/02/04 13:23:39;;;;;;;7.82;5.72;;;3.40;99.90;;;;;;4986147;28;20230;-59
2022/02/04 13:26:10;;;;;;;7.80;7.00;;;3.40;99.90;;;;;;4991622;28;20227;-60
2022/02/04 13:28:42;;;;;;;7.55;6.00;;;3.50;99.90;;;;;;4990749;28;20209;-60
2022/02/04 13:31:14;;;;;;;7.20;6.47;;;3.50;99.90;;;;;;4982074;28;20199;-60
2022/02/04 13:33:46;;;;;;;7.53;5.80;;;3.50;99.90;;;;;;4989883;28;20201;-60
2022/02/04 13:36:27;;;;;;;9.68;6.95;;;3.40;99.90;;;;;;4984296;28;20320;-60
2022/02/04 13:39:11;;;;;;;6.55;5.85;;;3.40;99.90;;;;;;4982505;28;20280;-60
2022/02/04 13:41:56;;;;;;;9.60;7.15;;;3.40;99.90;;;;;;4992202;28;20222;-60
2022/02/04 13:44:35;;;;;;;8.10;5.72;;;3.40;99.90;;;;;;4985495;28;20201;-60
2022/02/04 13:47:24;;;;;;;7.38;6.15;;;3.40;99.90;;;;;;4978782;28;20216;-60
2022/02/04 13:50:10;;;;;;;7.97;5.72;;;3.30;99.90;;;;;;4989139;28;20199;-60
2022/02/04 13:53:03;;;;;;;6.20;5.60;;;3.30;99.90;;;;;;4986204;28;20677;-60
2022/02/04 13:55:51;;;;;;;8.48;6.80;;;3.30;99.90;;;;;;4985782;28;20218;-60
2022/02/04 13:58:33;;;;;;;9.30;6.38;;;3.30;99.90;;;;;;4985780;28;20239;-60
2022/02/04 14:01:09;;;;;;;7.13;6.32;;;3.30;99.90;;;;;;4988835;28;20200;-60
2022/02/04 14:03:44;;;;;;;7.50;6.57;;;3.30;99.90;;;;;;4984547;28;20200;-60
2022/02/04 14:06:18;;;;;;;9.40;5.85;;;3.40;99.90;;;;;;4983725;28;20229;-61
2022/02/04 14:08:53;;;;;;;7.95;5.75;;;3.40;99.90;;;;;;4984663;28;20222;-60
2022/02/04 14:11:34;;;;;;;9.02;6.20;;;3.40;99.90;;;;;;4992551;28;20987;-60
2022/02/04 14:14:07;;;;;;;6.45;5.60;;;3.30;99.90;;;;;;4989052;28;20208;-60
2022/02/04 14:16:39;;;;;;;8.50;6.25;;;3.20;99.90;;;;;;4985082;28;20193;-60
2022/02/04 14:19:09;;;;;;;7.97;6.35;;;3.20;99.90;;;;;;4992014;28;20218;-60
2022/02/04 14:21:40;;;;;;;7.93;6.40;;;3.20;99.90;;;;;;4991980;28;20208;-60
2022/02/04 14:24:12;;;;;;;7.82;5.70;;;3.20;99.90;;;;;;4987491;28;20200;-61
2022/02/04 14:26:47;;;;;;;6.88;5.97;;;3.30;99.90;;;;;;4988218;28;20236;-60
2022/02/04 14:29:23;;;;;;;170.52;32.45;;;3.30;99.90;;;;;;4984049;28;20203;-59
2022/02/04 14:31:59;;;;;;;479.30;99.75;;;3.40;99.90;;;;;;4988779;28;20270;-59
2022/02/04 14:34:48;;;;;;;1999.90;570.30;;;3.50;99.90;;;;;;4988837;28;20205;-57
2022/02/04 14:37:36;;;;;;;10.73;8.02;;;3.60;99.90;;;;;;4990049;28;20231;-59
2022/02/04 14:51:59;;;;;;;9.07;6.60;;;3.30;99.90;;;;;;4981933;28;20208;-59
2022/02/04 14:54:47;;;;;;;7.38;5.90;;;3.20;99.90;;;;;;4985027;28;20280;-59
2022/02/04 15:03:22;;;;;;;8.20;6.25;;;3.20;99.90;;;;;;4953588;29;20200;-58
2022/02/04 15:06:03;;;;;;;7.10;5.47;;;3.20;99.90;;;;;;4960835;29;20249;-53
2022/02/04 15:08:55;;;;;;;7.15;6.05;;;3.20;99.90;;;;;;4955168;29;20197;-58
2022/02/04 15:11:30;;;;;;;6.35;5.63;;;3.20;99.90;;;;;;4957687;29;20201;-59
2022/02/04 15:14:02;;;;;;;5.70;5.20;;;3.10;99.90;;;;;;4961568;29;20228;-59
2022/02/04 15:16:36;;;;;;;9.50;5.82;;;3.10;99.90;;;;;;4960666;29;20233;-59
2022/02/04 15:19:07;;;;;;;6.82;6.13;;;3.10;99.90;;;;;;4958125;29;20226;-59
2022/02/04 15:21:41;;;;;;;6.75;5.95;;;3.10;99.90;;;;;;4947191;29;20238;-57
2022/02/04 15:24:12;;;;;;;6.53;5.10;;;3.10;99.90;;;;;;4960843;29;20186;-59
2022/02/04 15:26:42;;;;;;;8.30;5.70;;;3.10;99.90;;;;;;4956757;29;20197;-59
2022/02/04 15:29:16;;;;;;;7.22;5.43;;;3.00;99.90;;;;;;4948597;29;20211;-57
2022/02/04 15:31:52;;;;;;;10.25;6.68;;;3.00;99.90;;;;;;4957747;29;20257;-58
2022/02/04 15:34:25;;;;;;;7.53;6.22;;;2.90;99.90;;;;;;4949251;29;20201;-59
2022/02/04 15:36:56;;;;;;;8.35;6.15;;;2.90;99.90;;;;;;4960224;29;20284;-57
2022/02/04 15:39:29;;;;;;;7.68;6.00;;;2.90;99.90;;;;;;4968760;28;20263;-59
2022/02/04 15:42:07;;;;;;;1999.90;639.00;;;3.00;99.90;;;;;;4975129;28;20197;-57
2022/02/04 15:44:41;;;;;;;1999.90;562.53;;;3.20;99.90;;;;;;4978664;28;20204;-57
2022/02/04 15:47:51;;;;;;;1999.90;713.15;;;3.40;99.90;;;;;;4978869;28;20265;-57
2022/02/04 15:50:29;;;;;;;10.88;8.23;;;3.60;99.90;;;;;;4981935;28;20204;-59
2022/02/04 15:53:22;;;;;;;40.80;12.43;;;3.60;99.90;;;;;;4987215;28;20207;-59
2022/02/04 15:59:03;;;;;;;1999.90;625.58;;;3.50;99.90;;;;;;4979812;28;20258;-59
2022/02/04 16:01:51;;;;;;;13.07;9.35;;;3.80;99.90;;;;;;4984836;28;20208;-58
2022/02/04 16:04:26;;;;;;;1366.70;268.92;;;3.70;99.90;;;;;;4984427;28;20219;-70
2022/02/04 16:06:58;;;;;;;1999.90;718.88;;;3.70;99.90;;;;;;4982762;28;20658;-61
2022/02/04 16:09:29;;;;;;;1999.90;725.33;;;3.90;99.90;;;;;;4995571;28;20188;-60
2022/02/04 16:12:07;;;;;;;93.57;25.23;;;4.10;99.90;;;;;;4991441;28;20295;-63
2022/02/04 16:14:43;;;;;;;10.35;8.98;;;3.90;99.90;;;;;;4980569;28;20213;-61
2022/02/04 16:17:20;;;;;;;274.83;59.40;;;4.10;99.90;;;;;;4999307;28;20200;-64
2022/02/04 16:20:08;;;;;;;15.88;9.07;;;3.90;99.90;;;;;;4983688;28;20228;-66
2022/02/04 16:23:04;;;;;;;12.02;7.93;;;4.20;99.90;;;;;;4980906;28;20201;-63
2022/02/04 16:25:54;;;;;;;1637.78;315.92;;;4.00;99.90;;;;;;4991502;28;20208;-62
2022/02/04 16:28:41;;;;;;;7.90;6.75;;;4.10;99.90;;;;;;4986823;28;21367;-63
2022/02/04 16:31:14;;;;;;;10.13;7.50;;;4.20;99.90;;;;;;4985892;28;20204;-63
2022/02/04 16:33:45;;;;;;;1999.90;653.60;;;4.20;99.90;;;;;;4986982;28;20311;-62
2022/02/04 16:36:22;;;;;;;180.00;31.88;;;4.40;99.90;;;;;;4984754;28;20631;-58
2022/02/04 16:38:53;;;;;;;1202.82;226.80;;;4.50;99.90;;;;;;4985494;28;20249;-58
2022/02/04 16:41:32;;;;;;;11.73;8.30;;;4.50;99.90;;;;;;4990852;28;20215;-54
2022/02/04 16:44:02;;;;;;;7.75;6.88;;;4.30;99.90;;;;;;4984484;28;20649;-57
2022/02/04 16:46:34;;;;;;;7.63;6.82;;;4.20;99.90;;;;;;4990461;28;20199;-60
2022/02/04 16:49:05;;;;;;;8.63;6.90;;;4.20;99.90;;;;;;4990910;28;20621;-60
2022/02/04 16:51:39;;;;;;;8.25;6.65;;;4.20;99.90;;;;;;4986935;28;20245;-57
2022/02/04 16:54:11;;;;;;;7.47;6.78;;;4.40;99.90;;;;;;4993027;28;20272;-60
2022/02/04 16:56:41;;;;;;;9.60;7.93;;;4.30;99.90;;;;;;4993231;28;20219;-68
2022/02/04 16:59:15;;;;;;;8.52;7.18;;;4.30;99.90;;;;;;4980772;28;20651;-59
2022/02/04 17:01:49;;;;;;;201.52;37.95;;;4.50;99.90;;;;;;4985218;28;20243;-61
2022/02/04 17:04:21;;;;;;;6.80;6.10;;;4.60;99.90;;;;;;4982715;28;20239;-60
2022/02/04 17:06:59;;;;;;;8.85;6.75;;;4.60;99.90;;;;;;4980215;28;20233;-60
2022/02/04 17:09:34;;;;;;;7.93;6.78;;;4.50;99.90;;;;;;4988145;28;20275;-60
2022/02/04 17:12:08;;;;;;;7.25;6.35;;;4.70;99.90;;;;;;4982593;28;20205;-60
2022/02/04 17:14:39;;;;;;;9.30;8.10;;;4.90;99.90;;;;;;4983603;28;20201;-61
2022/02/04 17:17:10;;;;;;;984.33;188.57;;;5.00;99.90;;;;;;4980544;28;20503;-60
2022/02/04 17:19:48;;;;;;;147.57;32.90;;;5.10;99.90;;;;;;4982794;28;20242;-60
2022/02/04 17:22:24;;;;;;;953.88;171.02;;;5.30;99.90;;;;;;4980814;28;20830;-61
2022/02/04 17:24:54;;;;;;;160.30;32.80;;;5.40;99.90;;;;;;4989490;28;20259;-60
2022/02/04 17:27:25;;;;;;;11.43;8.63;;;5.70;99.90;;;;;;4983362;28;20540;-61